createdAt,value
2022-08-05T00:00:16.167Z,102477.81
2022-08-05T00:02:51.584Z,102465.59
2022-08-05T00:06:03.301Z,102475.81
2022-08-05T00:08:30.858Z,102482.78
2022-08-05T00:11:00.389Z,102473.25
2022-08-05T00:13:38.730Z,102476.94
2022-08-05T00:16:12.685Z,102483.25
2022-08-05T00:18:42.079Z,102476.53
2022-08-05T00:21:09.617Z,102471.44
2022-08-05T00:23:45.781Z,102474.13
2022-08-05T00:26:16.438Z,102466.97
2022-08-05T00:28:44.018Z,102469.50
2022-08-05T00:31:13.378Z,102467.50
2022-08-05T00:34:53.629Z,102462.09
2022-08-05T00:37:09.861Z,102456.75
2022-08-05T00:39:14.505Z,102467.09
2022-08-05T00:41:55.289Z,102463.50
2022-08-05T00:44:30.778Z,102466.03
2022-08-05T00:47:02.161Z,102461.63
2022-08-05T00:49:44.380Z,102467.69
2022-08-05T00:52:18.381Z,102461.50
2022-08-05T00:54:56.010Z,102475.31
2022-08-05T00:57:25.228Z,102464.69
2022-08-05T00:59:58.465Z,102468.91
2022-08-05T01:02:25.347Z,102469.66
2022-08-05T01:04:55.009Z,102470.47
2022-08-05T01:07:22.322Z,102472.06
2022-08-05T01:09:59.101Z,102467.66
2022-08-05T01:12:29.753Z,102472.81
2022-08-05T01:15:07.059Z,102470.97
2022-08-05T01:18:03.753Z,102454.44
2022-08-05T01:20:49.020Z,102457.94
2022-08-05T01:23:34.975Z,102454.63
2022-08-05T01:26:19.276Z,102453.91
2022-08-05T01:28:57.325Z,102450.69
2022-08-05T01:31:51.764Z,102449.19
2022-08-05T01:34:26.736Z,102448.50
2022-08-05T01:37:06.176Z,102441.81
2022-08-05T01:39:46.778Z,102449.59
2022-08-05T01:42:19.780Z,102458.13
2022-08-05T01:44:53.873Z,102467.56
2022-08-05T01:47:24.656Z,102478.66
2022-08-05T01:50:15.381Z,102478.41
2022-08-05T01:52:44.575Z,102473.78
2022-08-05T01:55:20.837Z,102463.34
2022-08-05T01:58:11.342Z,102464.09
2022-08-05T02:00:42.640Z,102462.13
2022-08-05T02:03:24.614Z,102454.25
2022-08-05T02:06:00.977Z,102459.50
2022-08-05T02:08:31.586Z,102456.16
2022-08-05T02:11:12.713Z,102459.91
2022-08-05T02:13:53.790Z,102460.34
2022-08-05T02:16:52.465Z,102457.16
2022-08-05T02:19:47.043Z,102447.09
2022-08-05T02:22:49.814Z,102456.94
2022-08-05T02:25:25.093Z,102446.59
2022-08-05T02:27:59.645Z,102444.97
2022-08-05T02:30:34.406Z,102443.84
2022-08-05T02:33:03.897Z,102454.16
2022-08-05T02:35:38.166Z,102448.06
2022-08-05T02:38:19.426Z,102444.44
2022-08-05T02:40:47.461Z,102459.09
2022-08-05T02:43:16.930Z,102459.97
2022-08-05T02:45:52.276Z,102446.03
2022-08-05T02:48:29.171Z,102451.13
2022-08-05T02:51:01.573Z,102452.00
2022-08-05T02:53:39.018Z,102449.38
2022-08-05T02:56:08.671Z,102451.94
2022-08-05T02:58:37.357Z,102455.44
2022-08-05T03:01:33.672Z,102446.66
2022-08-05T03:04:12.032Z,102448.41
2022-08-05T03:06:56.160Z,102455.38
2022-08-05T03:09:27.155Z,102446.66
2022-08-05T03:12:05.809Z,102451.94
2022-08-05T03:14:32.800Z,102458.91
2022-08-05T03:17:00.864Z,102452.66
2022-08-05T03:19:33.728Z,102449.09
2022-08-05T03:22:01.629Z,102446.28
2022-08-05T03:24:30.780Z,102447.97
2022-08-05T03:26:59.203Z,102452.19
2022-08-05T03:29:45.357Z,102440.88
2022-08-05T03:32:15.609Z,102433.19
2022-08-05T03:34:50.560Z,102439.88
2022-08-05T03:37:19.824Z,102441.63
2022-08-05T03:40:01.090Z,102448.63
2022-08-05T03:42:32.318Z,102451.25
2022-08-05T03:45:01.829Z,102451.19
2022-08-05T03:47:35.207Z,102449.41
2022-08-05T03:50:02.631Z,102452.00
2022-08-05T03:52:36.906Z,102456.31
2022-08-05T03:56:10.054Z,102454.56
2022-08-05T03:58:29.051Z,102452.75
2022-08-05T04:00:59.148Z,102453.53
2022-08-05T04:03:29.350Z,102454.38
2022-08-05T04:05:59.175Z,102458.75
2022-08-05T04:08:30.357Z,102461.31
2022-08-05T04:11:04.407Z,102453.59
2022-08-05T04:13:50.170Z,102460.34
2022-08-05T04:16:24.125Z,102453.41
2022-08-05T04:18:54.428Z,102456.06
2022-08-05T04:22:09.220Z,102449.19
2022-08-05T04:24:18.727Z,102455.28
2022-08-05T04:26:49.022Z,102454.44
2022-08-05T04:29:15.956Z,102460.72
2022-08-05T04:31:43.029Z,102456.53
2022-08-05T04:34:18.330Z,102458.56
2022-08-05T04:36:50.135Z,102453.75
2022-08-05T04:39:20.539Z,102460.22
2022-08-05T04:41:50.961Z,102458.69
2022-08-05T04:44:21.316Z,102462.38
2022-08-05T04:46:57.483Z,102460.66
2022-08-05T04:49:38.596Z,102460.66
2022-08-05T04:52:12.738Z,102460.56
2022-08-05T04:54:39.681Z,102468.41
2022-08-05T04:57:06.621Z,102456.25
2022-08-05T04:59:40.550Z,102467.63
2022-08-05T05:02:36.998Z,102465.91
2022-08-05T05:05:02.301Z,102468.63
2022-08-05T05:07:32.445Z,102476.41
2022-08-05T05:10:02.149Z,102476.22
2022-08-05T05:12:30.018Z,102472.50
2022-08-05T05:14:57.051Z,102471.47
2022-08-05T05:17:55.822Z,102466.88
2022-08-05T05:20:12.871Z,102469.47
2022-08-05T05:22:41.020Z,102473.91
2022-08-05T05:25:17.038Z,102480.00
2022-08-05T05:27:53.581Z,102470.66
2022-08-05T05:30:30.825Z,102488.22
2022-08-05T05:33:03.786Z,102479.75
2022-08-05T05:35:42.644Z,102481.66
2022-08-05T05:38:13.090Z,102497.31
2022-08-05T05:40:48.369Z,102500.34
2022-08-05T05:43:27.614Z,102498.16
2022-08-05T05:46:13.616Z,102506.56
2022-08-05T05:48:44.292Z,102501.22
2022-08-05T05:51:15.820Z,102510.75
2022-08-05T05:53:54.559Z,102508.13
2022-08-05T05:56:31.957Z,102504.59
2022-08-05T05:59:03.532Z,102507.94
2022-08-05T06:01:37.578Z,102507.63
2022-08-05T06:04:08.321Z,102512.53
2022-08-05T06:06:41.762Z,102522.56
2022-08-05T06:09:09.623Z,102527.59
2022-08-05T06:12:01.696Z,102520.34
2022-08-05T06:14:34.626Z,102522.00
2022-08-05T06:17:22.419Z,102530.72
2022-08-05T06:19:56.756Z,102536.72
2022-08-05T06:22:33.562Z,102524.75
2022-08-05T06:25:01.739Z,102534.47
2022-08-05T06:28:10.447Z,102536.50
2022-08-05T06:30:35.418Z,102547.19
2022-08-05T06:33:02.559Z,102547.44
2022-08-05T06:36:05.807Z,102547.53
2022-08-05T06:38:16.527Z,102545.50
2022-08-05T06:40:44.417Z,102544.56
2022-08-05T06:43:58.933Z,102558.13
2022-08-05T06:46:03.932Z,102552.81
2022-08-05T06:48:47.182Z,102555.16
2022-08-05T06:51:29.335Z,102564.38
2022-08-05T06:54:02.007Z,102559.91
2022-08-05T06:56:34.365Z,102563.34
2022-08-05T06:59:01.665Z,102571.41
2022-08-05T07:01:32.222Z,102579.41
2022-08-05T07:04:02.267Z,102584.53
2022-08-05T07:06:30.128Z,102586.25
2022-08-05T07:08:59.041Z,102573.97
2022-08-05T07:11:28.222Z,102578.13
2022-08-05T07:14:15.784Z,102577.81
2022-08-05T07:17:59.331Z,102582.50
2022-08-05T07:22:27.879Z,102571.25
2022-08-05T07:25:22.046Z,102568.72
2022-08-05T07:27:57.770Z,102567.34
2022-08-05T07:30:32.770Z,102576.00
2022-08-05T07:33:05.449Z,102573.94
2022-08-05T07:36:02.373Z,102576.63
2022-08-05T07:38:33.197Z,102579.75
2022-08-05T07:42:08.709Z,102570.81
2022-08-05T07:43:57.017Z,102587.69
2022-08-05T07:46:28.975Z,102584.22
2022-08-05T07:49:01.587Z,102583.75
2022-08-05T07:51:37.134Z,102575.47
2022-08-05T07:54:05.629Z,102590.84
2022-08-05T07:57:01.154Z,102594.28
2022-08-05T07:59:23.257Z,102602.66
2022-08-05T08:01:58.493Z,102599.63
2022-08-05T08:04:37.858Z,102612.97
2022-08-05T08:07:07.218Z,102619.59
2022-08-05T08:09:35.166Z,102614.25
2022-08-05T08:12:12.515Z,102618.06
2022-08-05T08:14:48.723Z,102617.22
2022-08-05T08:17:21.515Z,102615.25
2022-08-05T08:20:21.418Z,102602.66
2022-08-05T08:22:36.087Z,102611.69
2022-08-05T08:25:03.930Z,102620.72
2022-08-05T08:27:47.634Z,102624.47
2022-08-05T08:30:28.465Z,102621.28
2022-08-05T08:33:04.502Z,102614.00
2022-08-05T08:35:34.811Z,102626.72
2022-08-05T08:38:07.675Z,102625.91
2022-08-05T08:40:35.888Z,102636.09
2022-08-05T08:45:16.839Z,102629.38
2022-08-05T08:45:54.409Z,102636.72
2022-08-05T08:49:03.052Z,102627.00
2022-08-05T08:52:02.040Z,102640.47
2022-08-05T08:53:57.067Z,102642.56
2022-08-05T08:56:27.141Z,102648.00
2022-08-05T08:58:55.059Z,102642.28
2022-08-05T09:01:25.642Z,102655.31
2022-08-05T09:03:57.322Z,102645.84
2022-08-05T09:06:30.369Z,102645.91
2022-08-05T09:09:02.383Z,102628.31
2022-08-05T09:11:53.430Z,102635.88
2022-08-05T09:14:58.932Z,102637.34
2022-08-05T09:17:09.812Z,102637.34
2022-08-05T09:20:02.650Z,102646.44
2022-08-05T09:23:07.831Z,102649.66
2022-08-05T09:26:02.880Z,102647.38
2022-08-05T09:28:31.478Z,102657.50
2022-08-05T09:32:38.640Z,102658.34
2022-08-05T09:34:09.627Z,102653.31
2022-08-05T09:36:55.323Z,102658.50
2022-08-05T09:39:27.801Z,102660.16
2022-08-05T09:42:13.622Z,102658.47
2022-08-05T09:44:56.756Z,102650.75
2022-08-05T09:47:30.679Z,102654.19
2022-08-05T09:50:38.253Z,102656.09
2022-08-05T09:53:06.138Z,102661.66
2022-08-05T09:55:56.142Z,102651.59
2022-08-05T09:58:24.593Z,102664.50
2022-08-05T10:01:01.836Z,102654.94
2022-08-05T10:03:58.483Z,102665.84
2022-08-05T10:06:28.035Z,102658.44
2022-08-05T10:08:55.787Z,102662.88
2022-08-05T10:11:23.047Z,102670.94
2022-08-05T10:13:54.699Z,102642.91
2022-08-05T10:16:41.918Z,102659.22
2022-08-05T10:19:23.730Z,102664.13
2022-08-05T10:21:59.730Z,102665.88
2022-08-05T10:24:27.405Z,102666.06
2022-08-05T10:27:00.508Z,102669.41
2022-08-05T10:30:06.519Z,102660.91
2022-08-05T10:32:55.538Z,102667.97
2022-08-05T10:35:04.422Z,102677.56
2022-08-05T10:37:40.103Z,102673.69
2022-08-05T10:40:28.996Z,102675.09
2022-08-05T10:43:08.053Z,102678.28
2022-08-05T10:45:40.473Z,102653.44
2022-08-05T10:48:40.619Z,102683.41
2022-08-05T10:51:23.102Z,102677.88
2022-08-05T10:54:01.625Z,102685.66
2022-08-05T10:56:49.292Z,102689.22
2022-08-05T11:00:03.741Z,102695.47
2022-08-05T11:02:34.815Z,102697.00
2022-08-05T11:05:05.954Z,102699.16
2022-08-05T11:08:01.722Z,102693.34
2022-08-05T11:10:27.409Z,102696.19
2022-08-05T11:12:57.869Z,102707.38
2022-08-05T11:16:00.303Z,102693.41
2022-08-05T11:18:32.551Z,102698.69
2022-08-05T11:21:06.139Z,102697.75
2022-08-05T11:24:04.924Z,102700.34
2022-08-05T11:26:43.359Z,102690.06
2022-08-05T11:29:42.978Z,102692.44
2022-08-05T11:32:27.806Z,102701.53
2022-08-05T11:34:55.980Z,102693.91
2022-08-05T11:38:28.304Z,102700.31
2022-08-05T11:41:54.558Z,102705.22
2022-08-05T11:44:40.494Z,102701.44
2022-08-05T11:47:10.502Z,102707.53
2022-08-05T11:49:43.030Z,102700.75
2022-08-05T11:52:11.593Z,102704.19
2022-08-05T11:54:41.279Z,102698.84
2022-08-05T11:57:26.089Z,102709.50
2022-08-05T11:59:55.269Z,102710.81
2022-08-05T12:02:31.621Z,102714.47
2022-08-05T12:05:07.558Z,102713.75
2022-08-05T12:08:07.528Z,102712.91
2022-08-05T12:10:39.051Z,102720.00
2022-08-05T12:13:28.172Z,102724.22
2022-08-05T12:16:17.648Z,102719.00
2022-08-05T12:18:49.622Z,102723.06
2022-08-05T12:21:23.708Z,102726.16
2022-08-05T12:23:54.622Z,102727.31
2022-08-05T12:26:23.127Z,102726.69
2022-08-05T12:28:51.134Z,102726.69
2022-08-05T12:31:23.705Z,102722.13
2022-08-05T12:34:09.322Z,102721.44
2022-08-05T12:36:48.107Z,102726.06
2022-08-05T12:39:15.113Z,102722.81
2022-08-05T12:41:43.869Z,102729.91
2022-08-05T12:44:14.139Z,102717.06
2022-08-05T12:46:45.729Z,102717.97
2022-08-05T12:49:19.087Z,102727.00
2022-08-05T12:52:12.755Z,102729.19
2022-08-05T12:54:45.507Z,102728.00
2022-08-05T12:57:13.425Z,102728.81
2022-08-05T13:01:57.418Z,102726.50
2022-08-05T13:02:36.229Z,102715.84
2022-08-05T13:05:06.986Z,102727.88
2022-08-05T13:07:59.286Z,102732.34
2022-08-05T13:10:20.893Z,102732.59
2022-08-05T13:12:57.163Z,102733.56
2022-08-05T13:15:41.242Z,102734.06
2022-08-05T13:18:09.215Z,102726.94
2022-08-05T13:20:40.488Z,102729.53
2022-08-05T13:23:07.742Z,102733.47
2022-08-05T13:25:52.817Z,102725.19
2022-08-05T13:28:22.444Z,102727.72
2022-08-05T13:30:51.223Z,102732.53
2022-08-05T13:34:22.810Z,102731.34
2022-08-05T13:36:09.522Z,102735.72
2022-08-05T13:38:42.436Z,102736.50
2022-08-05T13:41:11.697Z,102738.72
2022-08-05T13:43:43.989Z,102734.44
2022-08-05T13:46:37.695Z,102730.16
2022-08-05T13:49:11.780Z,102747.09
2022-08-05T13:51:40.970Z,102746.78
2022-08-05T13:54:11.921Z,102745.19
2022-08-05T13:56:40.051Z,102734.31
2022-08-05T13:59:20.071Z,102739.88
2022-08-05T14:01:56.594Z,102749.88
2022-08-05T14:04:57.247Z,102752.94
2022-08-05T14:08:00.162Z,102747.19
2022-08-05T14:10:28.939Z,102754.97
2022-08-05T14:12:59.418Z,102756.69
2022-08-05T14:16:08.954Z,102763.03
2022-08-05T14:18:17.420Z,102767.00
2022-08-05T14:20:46.922Z,102765.34
2022-08-05T14:23:14.724Z,102773.25
2022-08-05T14:25:54.027Z,102768.34
2022-08-05T14:28:26.229Z,102774.34
2022-08-05T14:30:54.673Z,102775.72
2022-08-05T14:33:23.244Z,102770.13
2022-08-05T14:35:52.048Z,102768.44
2022-08-05T14:38:32.937Z,102777.50
2022-08-05T14:41:06.898Z,102775.00
2022-08-05T14:43:59.434Z,102779.41
2022-08-05T14:46:28.845Z,102772.94
2022-08-05T14:48:59.546Z,102774.31
2022-08-05T14:51:31.052Z,102767.59
2022-08-05T14:54:26.297Z,102775.38
2022-08-05T14:56:46.893Z,102775.78
2022-08-05T14:59:15.364Z,102778.44
2022-08-05T15:01:48.342Z,102782.69
2022-08-05T15:04:16.959Z,102780.72
2022-08-05T15:06:49.464Z,102777.09
2022-08-05T15:09:50.605Z,102776.00
2022-08-05T15:12:06.266Z,102774.19
2022-08-05T15:14:48.205Z,102783.25
2022-08-05T15:17:47.132Z,102789.56
2022-08-05T15:20:19.085Z,102780.88
2022-08-05T15:22:52.148Z,102780.59
2022-08-05T15:25:23.521Z,102782.09
2022-08-05T15:28:08.975Z,102785.56
2022-08-05T15:30:41.462Z,102782.03
2022-08-05T15:33:10.444Z,102785.59
2022-08-05T15:35:45.198Z,102785.38
2022-08-05T15:38:35.582Z,102783.19
2022-08-05T15:41:23.077Z,102787.66
2022-08-05T15:43:47.360Z,102790.91
2022-08-05T15:46:14.540Z,102794.00
2022-08-05T15:48:52.786Z,102791.66
2022-08-05T15:52:12.540Z,102793.81
2022-08-05T15:54:15.904Z,102797.63
2022-08-05T15:56:43.603Z,102800.09
2022-08-05T15:59:21.700Z,102795.78
2022-08-05T16:01:52.322Z,102789.50
2022-08-05T16:04:25.195Z,102790.34
2022-08-05T16:06:52.249Z,102798.81
2022-08-05T16:09:19.309Z,102794.53
2022-08-05T16:11:52.774Z,102805.88
2022-08-05T16:14:20.207Z,102802.13
2022-08-05T16:16:47.413Z,102796.78
2022-08-05T16:19:25.401Z,102799.22
2022-08-05T16:22:03.324Z,102805.19
2022-08-05T16:24:40.994Z,102801.19
2022-08-05T16:27:17.987Z,102803.53
2022-08-05T16:29:50.383Z,102804.53
2022-08-05T16:32:28.467Z,102814.28
2022-08-05T16:34:56.583Z,102813.47
2022-08-05T16:38:16.394Z,102811.34
2022-08-05T16:40:25.009Z,102808.75
2022-08-05T16:42:55.875Z,102810.16
2022-08-05T16:46:04.033Z,102808.78
2022-08-05T16:48:10.336Z,102810.72
2022-08-05T16:50:37.595Z,102799.91
2022-08-05T16:53:12.317Z,102814.38
2022-08-05T16:55:49.209Z,102809.22
2022-08-05T16:58:19.628Z,102806.78
2022-08-05T17:00:48.168Z,102805.19
2022-08-05T17:03:20.132Z,102807.97
2022-08-05T17:05:51.801Z,102812.00
2022-08-05T17:08:36.748Z,102815.84
2022-08-05T17:11:12.582Z,102812.25
2022-08-05T17:13:45.396Z,102818.31
2022-08-05T17:16:32.526Z,102816.97
2022-08-05T17:19:00.268Z,102820.19
2022-08-05T17:21:35.663Z,102823.81
2022-08-05T17:24:09.321Z,102823.16
2022-08-05T17:26:52.891Z,102828.38
2022-08-05T17:29:22.272Z,102832.75
2022-08-05T17:31:58.756Z,102828.19
2022-08-05T17:34:29.771Z,102831.94
2022-08-05T17:36:57.172Z,102829.06
2022-08-05T17:39:29.787Z,102833.03
2022-08-05T17:42:19.228Z,102833.50
2022-08-05T17:44:50.500Z,102837.97
2022-08-05T17:47:21.954Z,102837.56
2022-08-05T17:50:00.243Z,102836.13
2022-08-05T17:52:32.398Z,102838.88
2022-08-05T17:54:59.850Z,102835.84
2022-08-05T17:57:27.717Z,102845.34
2022-08-05T18:00:03.483Z,102842.28
2022-08-05T18:02:36.135Z,102839.09
2022-08-05T18:05:07.741Z,102848.06
2022-08-05T18:07:41.748Z,102853.66
2022-08-05T18:10:11.568Z,102852.38
2022-08-05T18:12:41.075Z,102851.81
2022-08-05T18:15:09.060Z,102854.56
2022-08-05T18:18:00.393Z,102843.84
2022-08-05T18:20:29.429Z,102850.84
2022-08-05T18:23:04.901Z,102861.88
2022-08-05T18:25:39.164Z,102868.66
2022-08-05T18:28:07.140Z,102856.91
2022-08-05T18:30:39.130Z,102865.88
2022-08-05T18:33:08.613Z,102859.63
2022-08-05T18:36:01.332Z,102872.22
2022-08-05T18:38:28.866Z,102880.31
2022-08-05T18:41:56.634Z,102882.34
2022-08-05T18:43:48.789Z,102884.56
2022-08-05T18:46:19.756Z,102882.06
2022-08-05T18:48:48.337Z,102887.19
2022-08-05T18:52:04.324Z,102889.28
2022-08-05T18:54:28.483Z,102888.38
2022-08-05T18:56:59.288Z,102884.00
2022-08-05T18:59:42.730Z,102894.00
2022-08-05T19:02:28.051Z,102893.72
2022-08-05T19:06:05.840Z,102896.97
2022-08-05T19:07:52.762Z,102897.53
2022-08-05T19:10:26.559Z,102903.31
2022-08-05T19:12:56.332Z,102894.84
2022-08-05T19:15:57.410Z,102896.84
2022-08-05T19:18:21.027Z,102898.84
2022-08-05T19:20:52.491Z,102909.75
2022-08-05T19:24:06.251Z,102907.53
2022-08-05T19:26:08.431Z,102908.97
2022-08-05T19:28:41.677Z,102910.34
2022-08-05T19:31:13.393Z,102903.97
2022-08-05T19:33:48.687Z,102920.09
2022-08-05T19:36:25.063Z,102920.69
2022-08-05T19:38:53.852Z,102921.06
2022-08-05T19:41:21.898Z,102930.13
2022-08-05T19:44:13.399Z,102928.81
2022-08-05T19:46:41.506Z,102932.72
2022-08-05T19:49:16.387Z,102938.34
2022-08-05T19:52:08.505Z,102927.22
2022-08-05T19:54:34.076Z,102932.88
2022-08-05T19:57:08.436Z,102942.06
2022-08-05T19:59:55.837Z,102945.19
2022-08-05T20:02:24.513Z,102942.63
2022-08-05T20:04:55.010Z,102943.81
2022-08-05T20:07:46.647Z,102958.22
2022-08-05T20:10:13.756Z,102957.72
2022-08-05T20:12:46.016Z,102965.97
2022-08-05T20:15:48.318Z,102968.88
2022-08-05T20:18:09.801Z,102963.91
2022-08-05T20:20:55.190Z,102977.13
2022-08-05T20:23:40.122Z,102976.41
2022-08-05T20:26:16.002Z,102974.84
2022-08-05T20:28:45.079Z,102982.97
2022-08-05T20:31:12.028Z,102981.44
2022-08-05T20:33:42.385Z,102980.72
2022-08-05T20:36:10.085Z,102985.19
2022-08-05T20:38:53.141Z,102987.91
2022-08-05T20:41:23.757Z,102984.66
2022-08-05T20:43:59.803Z,102982.31
2022-08-05T20:46:28.517Z,103000.81
2022-08-05T20:48:55.417Z,102996.56
2022-08-05T20:51:22.305Z,103002.06
2022-08-05T20:53:56.809Z,103005.81
2022-08-05T20:56:29.748Z,103006.91
2022-08-05T20:59:00.114Z,103011.53
2022-08-05T21:01:39.070Z,103010.88
2022-08-05T21:04:10.479Z,103008.34
2022-08-05T21:06:45.366Z,103012.84
2022-08-05T21:09:14.222Z,103020.81
2022-08-05T21:12:10.756Z,103013.91
2022-08-05T21:14:34.638Z,103009.59
2022-08-05T21:17:06.073Z,103005.31
2022-08-05T21:19:46.611Z,103007.13
2022-08-05T21:22:14.831Z,103011.59
2022-08-05T21:24:44.740Z,103010.72
2022-08-05T21:27:16.199Z,103007.28
2022-08-05T21:29:48.282Z,103010.75
2022-08-05T21:32:19.793Z,103011.69
2022-08-05T21:35:09.012Z,103015.19
2022-08-05T21:37:34.975Z,103012.63
2022-08-05T21:40:13.820Z,103011.13
2022-08-05T21:42:44.585Z,103025.19
2022-08-05T21:45:12.271Z,103026.16
2022-08-05T21:47:56.192Z,103030.00
2022-08-05T21:50:26.500Z,103032.88
2022-08-05T21:52:59.116Z,103022.66
2022-08-05T21:55:42.942Z,103034.25
2022-08-05T21:58:24.826Z,103032.00
2022-08-05T22:00:59.592Z,103031.38
2022-08-05T22:03:48.984Z,103029.88
2022-08-05T22:06:13.544Z,103034.47
2022-08-05T22:08:42.471Z,103037.31
2022-08-05T22:11:15.754Z,103035.78
2022-08-05T22:14:19.895Z,103031.63
2022-08-05T22:16:42.017Z,103034.44
2022-08-05T22:20:01.116Z,103033.69
2022-08-05T22:22:05.612Z,103040.00
2022-08-05T22:24:52.289Z,103036.69
2022-08-05T22:28:10.348Z,103025.53
2022-08-05T22:30:55.498Z,103029.22
2022-08-05T22:33:57.106Z,103032.78
2022-08-05T22:36:14.724Z,103030.34
2022-08-05T22:38:48.118Z,103028.81
2022-08-05T22:42:04.422Z,103038.50
2022-08-05T22:44:03.960Z,103039.56
2022-08-05T22:46:31.217Z,103034.44
2022-08-05T22:48:59.341Z,103035.41
2022-08-05T22:52:04.700Z,103037.25
2022-08-05T22:54:13.513Z,103041.72
2022-08-05T22:56:40.964Z,103040.09
2022-08-05T22:59:43.941Z,103036.69
2022-08-05T23:02:05.501Z,103039.38
2022-08-05T23:04:34.984Z,103043.00
2022-08-05T23:07:02.642Z,103040.44
2022-08-05T23:09:58.004Z,103041.50
2022-08-05T23:12:23.870Z,103045.84
2022-08-05T23:14:51.739Z,103060.72
2022-08-05T23:17:34.624Z,103055.56
2022-08-05T23:20:16.440Z,103053.97
2022-08-05T23:22:43.855Z,103066.13
2022-08-05T23:25:17.059Z,103066.19
2022-08-05T23:28:07.066Z,103069.66
2022-08-05T23:30:40.499Z,103082.72
2022-08-05T23:33:16.335Z,103077.56
2022-08-05T23:35:49.377Z,103074.13
2022-08-05T23:38:16.970Z,103069.88
2022-08-05T23:40:49.870Z,103070.78
2022-08-05T23:43:25.300Z,103069.97
2022-08-05T23:46:21.321Z,103070.88
2022-08-05T23:48:59.772Z,103070.09
2022-08-05T23:51:53.505Z,103074.50
2022-08-05T23:54:38.276Z,103079.78
2022-08-05T23:57:07.224Z,103073.75
